Hendricks, West Virginia
Current Conditions -  °F | °C
As of 2:51 PM on Friday 24 Oct 2014 (Local Time) from KEKN Reporting Station
Clear Clear  
Wind Chill: 59°   Ceiling: Unl
Heat Index: 59°   Visibility: 10mi
Dew Point: 38°   Wind: 7mph
Humidity: 46%   Direction: NA
Pressure: 30.04"   Gusts: NA
Location:  39.08°N, 79.63°W
Report Text: KEKN 241851Z AUTO VRB06KT 10SM CLR 15/03 A3004 RMK AO2 SLP176 T01500033 TSNO
Loading
Personal Weather Stations






























Interactive Weather Map New forecast layout! Learn more

10-Day Weather Forecast

Advertisements
Track Severe Weather on mobile